sensor_id;sensor_type;location;lat;lon;timestamp;pressure;altitude;pressure_sealevel;temperature;humidity
78890;BME280;68279;48.964;14.502;2023-05-02T00:00:48;96922.34;;;7.78;88.34
78890;BME280;68279;48.964;14.502;2023-05-02T00:03:15;96926.84;;;7.62;87.18
78890;BME280;68279;48.964;14.502;2023-05-02T00:05:41;96926.00;;;7.47;87.13
78890;BME280;68279;48.964;14.502;2023-05-02T00:08:07;96927.59;;;7.48;87.39
78890;BME280;68279;48.964;14.502;2023-05-02T00:10:35;96922.31;;;7.68;88.53
78890;BME280;68279;48.964;14.502;2023-05-02T00:13:00;96930.91;;;7.95;88.39
78890;BME280;68279;48.964;14.502;2023-05-02T00:15:26;96930.09;;;8.05;87.88
78890;BME280;68279;48.964;14.502;2023-05-02T00:17:51;96926.63;;;8.05;88.71
78890;BME280;68279;48.964;14.502;2023-05-02T00:20:17;96934.09;;;8.13;89.44
78890;BME280;68279;48.964;14.502;2023-05-02T00:22:43;96938.88;;;8.11;89.32
78890;BME280;68279;48.964;14.502;2023-05-02T00:25:09;96932.50;;;8.22;89.22
78890;BME280;68279;48.964;14.502;2023-05-02T00:27:35;96939.94;;;8.25;89.02
78890;BME280;68279;48.964;14.502;2023-05-02T00:30:01;96939.94;;;8.25;89.03
78890;BME280;68279;48.964;14.502;2023-05-02T00:32:27;96939.72;;;8.42;88.83
78890;BME280;68279;48.964;14.502;2023-05-02T00:34:53;96938.59;;;8.48;89.04
78890;BME280;68279;48.964;14.502;2023-05-02T00:37:18;96936.75;;;8.54;88.51
78890;BME280;68279;48.964;14.502;2023-05-02T00:39:44;96932.75;;;8.61;89.20
78890;BME280;68279;48.964;14.502;2023-05-02T00:42:10;96936.97;;;8.72;88.44
78890;BME280;68279;48.964;14.502;2023-05-02T00:44:36;96939.66;;;8.77;87.53
78890;BME280;68279;48.964;14.502;2023-05-02T00:47:03;96935.09;;;8.78;87.50
78890;BME280;68279;48.964;14.502;2023-05-02T00:49:29;96939.06;;;8.91;87.53
78890;BME280;68279;48.964;14.502;2023-05-02T00:51:57;96934.56;;;8.86;86.54
78890;BME280;68279;48.964;14.502;2023-05-02T00:54:23;96932.97;;;8.85;86.69
78890;BME280;68279;48.964;14.502;2023-05-02T00:57:01;96937.81;;;8.68;87.48
78890;BME280;68279;48.964;14.502;2023-05-02T00:59:27;96941.25;;;8.68;87.08
78890;BME280;68279;48.964;14.502;2023-05-02T01:02:14;96937.03;;;8.52;86.78
78890;BME280;68279;48.964;14.502;2023-05-02T01:07:34;96939.16;;;8.50;87.75
78890;BME280;68279;48.964;14.502;2023-05-02T01:13:02;96945.00;;;8.47;87.49
78890;BME280;68279;48.964;14.502;2023-05-02T01:15:34;96948.75;;;8.51;87.94
78890;BME280;68279;48.964;14.502;2023-05-02T01:18:04;96942.09;;;8.54;88.11
78890;BME280;68279;48.964;14.502;2023-05-02T01:20:32;96942.66;;;8.40;89.66
78890;BME280;68279;48.964;14.502;2023-05-02T01:23:05;96944.75;;;8.54;88.46
78890;BME280;68279;48.964;14.502;2023-05-02T01:29:00;96957.81;;;8.55;87.89
78890;BME280;68279;48.964;14.502;2023-05-02T01:31:35;96953.28;;;8.66;89.34
78890;BME280;68279;48.964;14.502;2023-05-02T01:34:03;96956.72;;;8.26;90.99
78890;BME280;68279;48.964;14.502;2023-05-02T01:36:31;96955.16;;;8.35;88.52
78890;BME280;68279;48.964;14.502;2023-05-02T01:38:59;96958.34;;;8.47;89.54
78890;BME280;68279;48.964;14.502;2023-05-02T01:41:28;96959.16;;;8.52;87.19
78890;BME280;68279;48.964;14.502;2023-05-02T01:43:56;96966.06;;;8.59;89.08
78890;BME280;68279;48.964;14.502;2023-05-02T01:46:24;96964.47;;;8.63;89.84
78890;BME280;68279;48.964;14.502;2023-05-02T01:48:55;96964.47;;;8.37;92.38
78890;BME280;68279;48.964;14.502;2023-05-02T01:51:25;96959.69;;;8.44;91.86
78890;BME280;68279;48.964;14.502;2023-05-02T01:53:55;96965.81;;;8.45;91.77
78890;BME280;68279;48.964;14.502;2023-05-02T01:56:23;96958.88;;;8.54;90.51
78890;BME280;68279;48.964;14.502;2023-05-02T01:58:50;96972.22;;;8.49;92.25
78890;BME280;68279;48.964;14.502;2023-05-02T02:01:17;96955.97;;;8.35;93.13
78890;BME280;68279;48.964;14.502;2023-05-02T02:03:45;96965.56;;;8.41;92.65
78890;BME280;68279;48.964;14.502;2023-05-02T02:06:12;96968.19;;;8.31;93.39
78890;BME280;68279;48.964;14.502;2023-05-02T02:08:38;96972.47;;;8.37;93.29
78890;BME280;68279;48.964;14.502;2023-05-02T02:11:08;96971.66;;;8.32;94.02
78890;BME280;68279;48.964;14.502;2023-05-02T02:13:38;96970.88;;;8.36;93.10
78890;BME280;68279;48.964;14.502;2023-05-02T02:16:10;96980.75;;;8.36;92.00
78890;BME280;68279;48.964;14.502;2023-05-02T02:18:38;96971.41;;;8.38;92.23
78890;BME280;68279;48.964;14.502;2023-05-02T02:21:08;96977.00;;;8.42;90.90
78890;BME280;68279;48.964;14.502;2023-05-02T02:23:38;96973.03;;;8.39;91.25
78890;BME280;68279;48.964;14.502;2023-05-02T02:26:05;96978.34;;;8.44;91.07
78890;BME280;68279;48.964;14.502;2023-05-02T02:28:33;96980.22;;;8.49;91.17
78890;BME280;68279;48.964;14.502;2023-05-02T02:30:58;96985.81;;;8.58;91.02
78890;BME280;68279;48.964;14.502;2023-05-02T02:33:28;96979.69;;;8.57;91.08
78890;BME280;68279;48.964;14.502;2023-05-02T02:36:14;96982.03;;;8.64;91.62
78890;BME280;68279;48.964;14.502;2023-05-02T02:38:45;96979.38;;;8.69;90.99
78890;BME280;68279;48.964;14.502;2023-05-02T02:41:22;96984.97;;;8.72;91.13
78890;BME280;68279;48.964;14.502;2023-05-02T02:47:04;96983.94;;;8.68;92.33
78890;BME280;68279;48.964;14.502;2023-05-02T02:55:07;96989.25;;;8.78;91.41
78890;BME280;68279;48.964;14.502;2023-05-02T02:57:54;96991.34;;;8.82;90.62
78890;BME280;68279;48.964;14.502;2023-05-02T03:00:24;96986.81;;;8.82;92.33
78890;BME280;68279;48.964;14.502;2023-05-02T03:02:52;96990.00;;;8.94;91.94
78890;BME280;68279;48.964;14.502;2023-05-02T03:05:20;96983.34;;;8.97;92.02
78890;BME280;68279;48.964;14.502;2023-05-02T03:07:46;96987.59;;;9.03;90.94
78890;BME280;68279;48.964;14.502;2023-05-02T03:10:12;96979.84;;;9.12;91.48
78890;BME280;68279;48.964;14.502;2023-05-02T03:12:38;96993.19;;;9.12;90.87
78890;BME280;68279;48.964;14.502;2023-05-02T03:17:49;96989.91;;;9.25;91.44
78890;BME280;68279;48.964;14.502;2023-05-02T03:20:14;97001.34;;;9.41;90.63
78890;BME280;68279;48.964;14.502;2023-05-02T03:22:40;96996.00;;;9.41;90.44
78890;BME280;68279;48.964;14.502;2023-05-02T03:25:06;97000.84;;;9.33;91.15
78890;BME280;68279;48.964;14.502;2023-05-02T03:27:31;96999.22;;;9.38;91.00
78890;BME280;68279;48.964;14.502;2023-05-02T03:29:57;97001.59;;;9.44;90.61
78890;BME280;68279;48.964;14.502;2023-05-02T03:32:23;97004.13;;;9.00;93.02
78890;BME280;68279;48.964;14.502;2023-05-02T03:34:48;97004.91;;;9.05;93.77
78890;BME280;68279;48.964;14.502;2023-05-02T03:37:14;97003.28;;;9.09;92.49
78890;BME280;68279;48.964;14.502;2023-05-02T03:39:39;97007.56;;;9.16;92.64
78890;BME280;68279;48.964;14.502;2023-05-02T03:42:05;97008.38;;;9.11;92.43
78890;BME280;68279;48.964;14.502;2023-05-02T03:44:31;97009.16;;;9.17;92.47
78890;BME280;68279;48.964;14.502;2023-05-02T03:46:56;97008.06;;;9.23;91.98
78890;BME280;68279;48.964;14.502;2023-05-02T03:49:22;97016.88;;;9.28;91.46
78890;BME280;68279;48.964;14.502;2023-05-02T03:51:48;97015.00;;;9.29;91.78
78890;BME280;68279;48.964;14.502;2023-05-02T03:54:13;97012.31;;;9.34;91.31
78890;BME280;68279;48.964;14.502;2023-05-02T03:56:39;97012.53;;;9.43;92.05
78890;BME280;68279;48.964;14.502;2023-05-02T03:59:04;97018.16;;;9.46;92.56
78890;BME280;68279;48.964;14.502;2023-05-02T04:01:30;97020.72;;;9.61;91.37
78890;BME280;68279;48.964;14.502;2023-05-02T04:03:56;97023.50;;;9.46;91.94
78890;BME280;68279;48.964;14.502;2023-05-02T04:06:21;97030.47;;;9.27;92.60
78890;BME280;68279;48.964;14.502;2023-05-02T04:08:47;97025.66;;;9.39;91.38
78890;BME280;68279;48.964;14.502;2023-05-02T04:11:13;97027.47;;;9.49;91.12
78890;BME280;68279;48.964;14.502;2023-05-02T04:13:39;97033.84;;;9.63;91.02
78890;BME280;68279;48.964;14.502;2023-05-02T04:16:05;97046.13;;;9.59;90.91
78890;BME280;68279;48.964;14.502;2023-05-02T04:18:31;97048.47;;;9.71;90.37
78890;BME280;68279;48.964;14.502;2023-05-02T04:20:56;97051.06;;;9.86;89.22
78890;BME280;68279;48.964;14.502;2023-05-02T04:23:23;97059.59;;;9.93;89.24
78890;BME280;68279;48.964;14.502;2023-05-02T04:25:54;97067.31;;;10.00;88.77
78890;BME280;68279;48.964;14.502;2023-05-02T04:28:21;97057.88;;;10.12;88.29
78890;BME280;68279;48.964;14.502;2023-05-02T04:30:50;97057.06;;;10.22;88.70
78890;BME280;68279;48.964;14.502;2023-05-02T04:33:16;97065.34;;;10.26;88.33
78890;BME280;68279;48.964;14.502;2023-05-02T04:35:42;97068.53;;;10.23;87.96
78890;BME280;68279;48.964;14.502;2023-05-02T04:38:08;97067.97;;;10.31;88.09
78890;BME280;68279;48.964;14.502;2023-05-02T04:40:34;97072.78;;;10.34;88.17
78890;BME280;68279;48.964;14.502;2023-05-02T04:43:00;97078.50;;;10.56;88.22
78890;BME280;68279;48.964;14.502;2023-05-02T04:45:26;97074.94;;;10.66;87.54
78890;BME280;68279;48.964;14.502;2023-05-02T04:47:51;97087.09;;;10.53;87.34
78890;BME280;68279;48.964;14.502;2023-05-02T04:50:17;97082.16;;;10.65;85.33
78890;BME280;68279;48.964;14.502;2023-05-02T04:52:43;97083.97;;;10.75;83.71
78890;BME280;68279;48.964;14.502;2023-05-02T04:55:08;97084.53;;;10.72;83.94
78890;BME280;68279;48.964;14.502;2023-05-02T04:57:34;97088.72;;;11.12;81.45
78890;BME280;68279;48.964;14.502;2023-05-02T04:59:59;97092.91;;;10.94;82.55
78890;BME280;68279;48.964;14.502;2023-05-02T05:02:25;97096.13;;;11.25;80.95
78890;BME280;68279;48.964;14.502;2023-05-02T05:04:51;97087.06;;;11.45;79.56
78890;BME280;68279;48.964;14.502;2023-05-02T05:07:17;97100.44;;;11.50;79.44
78890;BME280;68279;48.964;14.502;2023-05-02T05:09:42;97098.03;;;11.73;79.08
78890;BME280;68279;48.964;14.502;2023-05-02T05:12:08;97093.47;;;11.20;79.31
78890;BME280;68279;48.964;14.502;2023-05-02T05:14:33;97110.28;;;11.55;78.90
78890;BME280;68279;48.964;14.502;2023-05-02T05:16:59;97106.69;;;11.41;79.35
78890;BME280;68279;48.964;14.502;2023-05-02T05:19:25;97116.44;;;11.84;78.53
78890;BME280;68279;48.964;14.502;2023-05-02T05:21:50;97117.22;;;11.85;77.67
78890;BME280;68279;48.964;14.502;2023-05-02T05:24:16;97127.78;;;12.19;76.71
78890;BME280;68279;48.964;14.502;2023-05-02T05:26:42;97132.56;;;11.74;77.28
78890;BME280;68279;48.964;14.502;2023-05-02T05:29:07;97128.91;;;12.37;74.21
78890;BME280;68279;48.964;14.502;2023-05-02T05:31:33;97129.94;;;12.17;74.66
78890;BME280;68279;48.964;14.502;2023-05-02T05:33:59;97139.91;;;12.54;73.63
78890;BME280;68279;48.964;14.502;2023-05-02T05:36:25;97131.00;;;12.77;74.06
78890;BME280;68279;48.964;14.502;2023-05-02T05:38:51;97134.97;;;12.99;72.85
78890;BME280;68279;48.964;14.502;2023-05-02T05:41:17;97136.38;;;12.77;75.47
78890;BME280;68279;48.964;14.502;2023-05-02T05:43:43;97145.06;;;13.26;71.60
78890;BME280;68279;48.964;14.502;2023-05-02T05:46:10;97144.22;;;12.55;74.23
78890;BME280;68279;48.964;14.502;2023-05-02T05:48:36;97141.28;;;12.70;73.09
78890;BME280;68279;48.964;14.502;2023-05-02T05:51:05;97143.69;;;12.72;72.70
78890;BME280;68279;48.964;14.502;2023-05-02T05:53:31;97144.56;;;12.67;73.74
78890;BME280;68279;48.964;14.502;2023-05-02T05:55:57;97149.00;;;12.15;75.56
78890;BME280;68279;48.964;14.502;2023-05-02T05:58:22;97151.03;;;12.05;76.20
78890;BME280;68279;48.964;14.502;2023-05-02T06:00:48;97158.78;;;12.06;76.34
78890;BME280;68279;48.964;14.502;2023-05-02T06:03:15;97155.34;;;12.01;75.16
78890;BME280;68279;48.964;14.502;2023-05-02T06:05:41;97166.06;;;12.01;75.37
78890;BME280;68279;48.964;14.502;2023-05-02T06:08:06;97156.50;;;11.95;77.94
78890;BME280;68279;48.964;14.502;2023-05-02T06:10:32;97163.97;;;12.22;74.94
78890;BME280;68279;48.964;14.502;2023-05-02T06:12:58;97168.88;;;11.90;75.38
78890;BME280;68279;48.964;14.502;2023-05-02T06:15:23;97174.72;;;12.40;74.78
78890;BME280;68279;48.964;14.502;2023-05-02T06:17:52;97181.94;;;12.64;70.92
78890;BME280;68279;48.964;14.502;2023-05-02T06:20:18;97179.47;;;12.67;70.01
78890;BME280;68279;48.964;14.502;2023-05-02T06:22:43;97183.66;;;12.12;72.72
78890;BME280;68279;48.964;14.502;2023-05-02T06:25:09;97181.94;;;12.21;74.62
78890;BME280;68279;48.964;14.502;2023-05-02T06:27:35;97191.63;;;12.60;74.42
78890;BME280;68279;48.964;14.502;2023-05-02T06:30:00;97179.94;;;12.51;70.53
78890;BME280;68279;48.964;14.502;2023-05-02T06:32:29;97188.72;;;12.37;70.62
78890;BME280;68279;48.964;14.502;2023-05-02T06:34:56;97202.94;;;12.57;70.14
78890;BME280;68279;48.964;14.502;2023-05-02T06:37:21;97199.19;;;12.34;70.72
78890;BME280;68279;48.964;14.502;2023-05-02T06:39:47;97198.44;;;12.52;69.60
78890;BME280;68279;48.964;14.502;2023-05-02T06:42:13;97197.00;;;12.79;66.96
78890;BME280;68279;48.964;14.502;2023-05-02T06:44:39;97196.56;;;12.71;67.45
78890;BME280;68279;48.964;14.502;2023-05-02T06:47:05;97202.84;;;12.43;68.50
78890;BME280;68279;48.964;14.502;2023-05-02T06:49:31;97201.63;;;12.11;68.27
78890;BME280;68279;48.964;14.502;2023-05-02T06:51:57;97208.69;;;12.26;67.31
78890;BME280;68279;48.964;14.502;2023-05-02T06:54:22;97205.81;;;12.41;67.38
78890;BME280;68279;48.964;14.502;2023-05-02T06:56:48;97214.78;;;12.08;68.87
78890;BME280;68279;48.964;14.502;2023-05-02T06:59:14;97214.41;;;12.19;68.05
78890;BME280;68279;48.964;14.502;2023-05-02T07:01:42;97213.88;;;12.17;67.88
78890;BME280;68279;48.964;14.502;2023-05-02T07:04:08;97218.44;;;11.93;67.48
78890;BME280;68279;48.964;14.502;2023-05-02T07:06:34;97218.22;;;12.13;69.13
78890;BME280;68279;48.964;14.502;2023-05-02T07:08:59;97214.03;;;12.26;68.80
78890;BME280;68279;48.964;14.502;2023-05-02T07:11:25;97216.25;;;12.19;70.22
78890;BME280;68279;48.964;14.502;2023-05-02T07:13:52;97219.91;;;12.52;67.60
78890;BME280;68279;48.964;14.502;2023-05-02T07:16:18;97218.53;;;12.55;65.75
78890;BME280;68279;48.964;14.502;2023-05-02T07:18:44;97210.22;;;11.84;67.34
78890;BME280;68279;48.964;14.502;2023-05-02T07:21:12;97220.66;;;12.34;66.00
78890;BME280;68279;48.964;14.502;2023-05-02T07:23:39;97212.53;;;12.20;66.95
78890;BME280;68279;48.964;14.502;2023-05-02T07:26:04;97216.63;;;12.12;67.77
78890;BME280;68279;48.964;14.502;2023-05-02T07:28:30;97222.38;;;12.25;65.74
78890;BME280;68279;48.964;14.502;2023-05-02T07:30:56;97220.44;;;12.06;65.59
78890;BME280;68279;48.964;14.502;2023-05-02T07:33:21;97228.69;;;11.86;66.87
78890;BME280;68279;48.964;14.502;2023-05-02T07:35:48;97228.53;;;12.25;64.89
78890;BME280;68279;48.964;14.502;2023-05-02T07:38:14;97226.44;;;12.22;64.42
78890;BME280;68279;48.964;14.502;2023-05-02T07:40:40;97227.50;;;12.45;62.87
78890;BME280;68279;48.964;14.502;2023-05-02T07:43:05;97221.88;;;12.46;62.05
78890;BME280;68279;48.964;14.502;2023-05-02T07:45:31;97222.19;;;12.64;62.65
78890;BME280;68279;48.964;14.502;2023-05-02T07:47:57;97226.22;;;12.61;63.94
78890;BME280;68279;48.964;14.502;2023-05-02T07:50:23;97230.59;;;12.33;66.35
78890;BME280;68279;48.964;14.502;2023-05-02T07:52:48;97237.41;;;12.87;65.12
78890;BME280;68279;48.964;14.502;2023-05-02T07:55:14;97232.03;;;12.68;64.25
78890;BME280;68279;48.964;14.502;2023-05-02T07:57:39;97241.81;;;13.21;62.32
78890;BME280;68279;48.964;14.502;2023-05-02T08:00:06;97240.03;;;13.11;61.88
78890;BME280;68279;48.964;14.502;2023-05-02T08:02:34;97249.22;;;13.29;61.54
78890;BME280;68279;48.964;14.502;2023-05-02T08:05:02;97253.72;;;12.72;63.62
78890;BME280;68279;48.964;14.502;2023-05-02T08:07:27;97252.06;;;12.95;61.90
78890;BME280;68279;48.964;14.502;2023-05-02T08:09:54;97252.19;;;13.27;62.41
78890;BME280;68279;48.964;14.502;2023-05-02T08:12:20;97252.16;;;13.46;60.62
78890;BME280;68279;48.964;14.502;2023-05-02T08:14:45;97260.31;;;12.80;66.95
78890;BME280;68279;48.964;14.502;2023-05-02T08:17:11;97268.53;;;12.88;63.88
78890;BME280;68279;48.964;14.502;2023-05-02T08:19:36;97273.25;;;13.20;63.53
78890;BME280;68279;48.964;14.502;2023-05-02T08:22:02;97275.75;;;13.49;60.88
78890;BME280;68279;48.964;14.502;2023-05-02T08:24:28;97273.88;;;13.31;63.21
78890;BME280;68279;48.964;14.502;2023-05-02T08:26:55;97274.44;;;14.12;61.88
78890;BME280;68279;48.964;14.502;2023-05-02T08:29:21;97281.91;;;13.50;62.73
78890;BME280;68279;48.964;14.502;2023-05-02T08:31:47;97267.09;;;13.85;61.51
78890;BME280;68279;48.964;14.502;2023-05-02T08:34:12;97277.88;;;13.33;62.81
78890;BME280;68279;48.964;14.502;2023-05-02T08:36:38;97277.84;;;14.17;62.05
78890;BME280;68279;48.964;14.502;2023-05-02T08:39:03;97278.31;;;14.06;61.82
78890;BME280;68279;48.964;14.502;2023-05-02T08:41:29;97280.16;;;14.24;58.95
78890;BME280;68279;48.964;14.502;2023-05-02T08:43:55;97284.25;;;13.56;60.03
78890;BME280;68279;48.964;14.502;2023-05-02T08:46:22;97287.41;;;13.26;61.35
78890;BME280;68279;48.964;14.502;2023-05-02T08:48:49;97287.75;;;13.38;62.39
78890;BME280;68279;48.964;14.502;2023-05-02T08:51:16;97294.50;;;14.33;59.05
78890;BME280;68279;48.964;14.502;2023-05-02T08:53:42;97288.38;;;13.49;60.45
78890;BME280;68279;48.964;14.502;2023-05-02T08:56:09;97291.88;;;13.49;60.98
78890;BME280;68279;48.964;14.502;2023-05-02T08:58:37;97287.59;;;13.48;60.87
78890;BME280;68279;48.964;14.502;2023-05-02T09:01:16;97291.06;;;13.68;60.87
78890;BME280;68279;48.964;14.502;2023-05-02T09:03:43;97287.88;;;13.09;63.32
78890;BME280;68279;48.964;14.502;2023-05-02T09:08:35;97296.44;;;13.49;61.01
78890;BME280;68279;48.964;14.502;2023-05-02T09:11:05;97301.91;;;13.25;61.59
78890;BME280;68279;48.964;14.502;2023-05-02T09:13:42;97296.97;;;13.32;59.44
78890;BME280;68279;48.964;14.502;2023-05-02T09:16:23;97303.41;;;13.69;60.38
78890;BME280;68279;48.964;14.502;2023-05-02T09:18:54;97306.75;;;14.39;59.76
78890;BME280;68279;48.964;14.502;2023-05-02T09:21:23;97304.72;;;13.33;61.48
78890;BME280;68279;48.964;14.502;2023-05-02T09:23:56;97309.06;;;13.11;62.58
78890;BME280;68279;48.964;14.502;2023-05-02T09:26:27;97309.13;;;14.27;58.48
78890;BME280;68279;48.964;14.502;2023-05-02T09:28:59;97315.22;;;13.35;61.44
78890;BME280;68279;48.964;14.502;2023-05-02T09:31:33;97316.50;;;13.56;64.27
78890;BME280;68279;48.964;14.502;2023-05-02T09:34:12;97315.31;;;14.28;58.69
78890;BME280;68279;48.964;14.502;2023-05-02T09:36:48;97315.00;;;14.15;60.60
78890;BME280;68279;48.964;14.502;2023-05-02T09:39:24;97322.25;;;14.89;58.15
78890;BME280;68279;48.964;14.502;2023-05-02T09:41:50;97335.25;;;15.37;56.49
78890;BME280;68279;48.964;14.502;2023-05-02T09:44:17;97331.09;;;15.17;54.42
78890;BME280;68279;48.964;14.502;2023-05-02T09:46:54;97332.78;;;14.44;56.58
78890;BME280;68279;48.964;14.502;2023-05-02T09:49:43;97334.72;;;14.98;55.93
78890;BME280;68279;48.964;14.502;2023-05-02T09:52:18;97329.63;;;15.11;56.52
78890;BME280;68279;48.964;14.502;2023-05-02T09:54:48;97333.38;;;15.37;54.31
78890;BME280;68279;48.964;14.502;2023-05-02T09:57:17;97342.91;;;14.80;58.33
78890;BME280;68279;48.964;14.502;2023-05-02T09:59:54;97341.31;;;14.79;57.92
78890;BME280;68279;48.964;14.502;2023-05-02T10:02:20;97337.00;;;15.05;57.49
78890;BME280;68279;48.964;14.502;2023-05-02T10:04:47;97344.41;;;13.93;59.08
78890;BME280;68279;48.964;14.502;2023-05-02T10:07:13;97343.38;;;15.09;57.99
78890;BME280;68279;48.964;14.502;2023-05-02T10:09:42;97342.50;;;16.08;54.18
78890;BME280;68279;48.964;14.502;2023-05-02T10:12:13;97343.69;;;16.25;53.72
78890;BME280;68279;48.964;14.502;2023-05-02T10:14:40;97345.88;;;15.69;54.61
78890;BME280;68279;48.964;14.502;2023-05-02T10:17:21;97348.94;;;15.76;55.09
78890;BME280;68279;48.964;14.502;2023-05-02T10:20:04;97345.78;;;14.69;57.89
78890;BME280;68279;48.964;14.502;2023-05-02T10:22:33;97350.88;;;15.62;54.75
78890;BME280;68279;48.964;14.502;2023-05-02T10:24:58;97343.78;;;15.89;56.94
78890;BME280;68279;48.964;14.502;2023-05-02T10:27:26;97348.06;;;15.53;57.33
78890;BME280;68279;48.964;14.502;2023-05-02T10:29:55;97342.88;;;16.78;55.00
78890;BME280;68279;48.964;14.502;2023-05-02T10:32:23;97350.78;;;15.67;54.65
78890;BME280;68279;48.964;14.502;2023-05-02T10:34:53;97353.00;;;15.88;55.51
78890;BME280;68279;48.964;14.502;2023-05-02T10:37:22;97348.13;;;16.21;53.60
78890;BME280;68279;48.964;14.502;2023-05-02T10:39:49;97347.06;;;15.63;55.86
78890;BME280;68279;48.964;14.502;2023-05-02T10:42:15;97349.81;;;15.85;53.42
78890;BME280;68279;48.964;14.502;2023-05-02T10:44:43;97346.66;;;16.37;52.83
78890;BME280;68279;48.964;14.502;2023-05-02T10:47:21;97347.78;;;15.55;55.12
78890;BME280;68279;48.964;14.502;2023-05-02T10:49:54;97347.59;;;16.41;53.73
78890;BME280;68279;48.964;14.502;2023-05-02T10:52:35;97348.19;;;15.12;55.45
78890;BME280;68279;48.964;14.502;2023-05-02T10:55:20;97350.03;;;14.43;59.92
78890;BME280;68279;48.964;14.502;2023-05-02T11:00:31;97345.06;;;16.36;52.32
78890;BME280;68279;48.964;14.502;2023-05-02T11:02:58;97352.53;;;15.72;54.34
78890;BME280;68279;48.964;14.502;2023-05-02T11:05:24;97357.59;;;15.65;54.55
78890;BME280;68279;48.964;14.502;2023-05-02T11:10:41;97358.72;;;16.08;56.19
78890;BME280;68279;48.964;14.502;2023-05-02T11:13:07;97353.91;;;15.47;55.04
78890;BME280;68279;48.964;14.502;2023-05-02T11:18:08;97357.75;;;16.35;53.76
78890;BME280;68279;48.964;14.502;2023-05-02T11:20:42;97359.78;;;16.07;54.61
78890;BME280;68279;48.964;14.502;2023-05-02T11:25:45;97360.41;;;16.04;54.21
78890;BME280;68279;48.964;14.502;2023-05-02T11:30:58;97360.75;;;14.89;57.53
78890;BME280;68279;48.964;14.502;2023-05-02T11:33:27;97363.81;;;15.38;58.12
78890;BME280;68279;48.964;14.502;2023-05-02T11:35:53;97359.09;;;16.24;56.42
78890;BME280;68279;48.964;14.502;2023-05-02T11:38:21;97365.31;;;15.80;57.27
78890;BME280;68279;48.964;14.502;2023-05-02T11:40:57;97359.00;;;15.48;57.38
78890;BME280;68279;48.964;14.502;2023-05-02T11:43:25;97367.66;;;15.73;57.27
78890;BME280;68279;48.964;14.502;2023-05-02T11:45:52;97360.94;;;14.65;58.70
78890;BME280;68279;48.964;14.502;2023-05-02T11:48:20;97367.44;;;14.92;59.89
78890;BME280;68279;48.964;14.502;2023-05-02T11:50:47;97357.66;;;14.82;57.88
78890;BME280;68279;48.964;14.502;2023-05-02T11:53:18;97364.94;;;15.23;60.01
78890;BME280;68279;48.964;14.502;2023-05-02T11:55:51;97365.38;;;15.89;54.71
78890;BME280;68279;48.964;14.502;2023-05-02T11:58:21;97363.72;;;16.01;55.90
78890;BME280;68279;48.964;14.502;2023-05-02T12:00:47;97365.00;;;16.80;56.31
78890;BME280;68279;48.964;14.502;2023-05-02T12:03:29;97364.81;;;17.33;51.47
78890;BME280;68279;48.964;14.502;2023-05-02T12:06:08;97365.59;;;16.46;53.43
78890;BME280;68279;48.964;14.502;2023-05-02T12:08:37;97362.53;;;16.69;51.98
78890;BME280;68279;48.964;14.502;2023-05-02T12:11:04;97355.66;;;16.94;50.94
78890;BME280;68279;48.964;14.502;2023-05-02T12:13:31;97355.13;;;17.32;52.62
78890;BME280;68279;48.964;14.502;2023-05-02T12:15:56;97358.16;;;16.82;52.27
78890;BME280;68279;48.964;14.502;2023-05-02T12:18:23;97365.06;;;16.66;54.67
78890;BME280;68279;48.964;14.502;2023-05-02T12:20:53;97359.91;;;17.35;56.50
78890;BME280;68279;48.964;14.502;2023-05-02T12:23:20;97364.78;;;18.46;53.53
78890;BME280;68279;48.964;14.502;2023-05-02T12:25:46;97360.44;;;17.89;49.42
78890;BME280;68279;48.964;14.502;2023-05-02T12:28:13;97363.78;;;18.03;52.46
78890;BME280;68279;48.964;14.502;2023-05-02T12:30:39;97362.50;;;17.92;53.06
78890;BME280;68279;48.964;14.502;2023-05-02T12:33:06;97367.97;;;18.65;51.00
78890;BME280;68279;48.964;14.502;2023-05-02T12:35:32;97370.56;;;17.66;50.56
78890;BME280;68279;48.964;14.502;2023-05-02T12:38:15;97364.28;;;18.61;49.52
78890;BME280;68279;48.964;14.502;2023-05-02T12:40:51;97365.16;;;18.35;48.05
78890;BME280;68279;48.964;14.502;2023-05-02T12:43:19;97365.75;;;15.59;55.95
78890;BME280;68279;48.964;14.502;2023-05-02T12:45:46;97365.03;;;15.54;57.64
78890;BME280;68279;48.964;14.502;2023-05-02T12:48:23;97368.84;;;16.34;56.75
78890;BME280;68279;48.964;14.502;2023-05-02T12:50:50;97362.44;;;17.49;53.85
78890;BME280;68279;48.964;14.502;2023-05-02T12:53:37;97364.31;;;17.31;51.53
78890;BME280;68279;48.964;14.502;2023-05-02T12:56:04;97359.13;;;18.30;51.77
78890;BME280;68279;48.964;14.502;2023-05-02T12:58:30;97356.44;;;18.77;52.27
78890;BME280;68279;48.964;14.502;2023-05-02T13:01:06;97356.13;;;17.88;50.23
78890;BME280;68279;48.964;14.502;2023-05-02T13:03:32;97357.72;;;18.79;50.81
78890;BME280;68279;48.964;14.502;2023-05-02T13:05:57;97358.22;;;18.64;50.48
78890;BME280;68279;48.964;14.502;2023-05-02T13:08:23;97360.72;;;18.31;52.47
78890;BME280;68279;48.964;14.502;2023-05-02T13:10:49;97362.88;;;19.52;50.17
78890;BME280;68279;48.964;14.502;2023-05-02T13:13:15;97358.41;;;18.67;51.23
78890;BME280;68279;48.964;14.502;2023-05-02T13:15:41;97355.22;;;18.57;51.68
78890;BME280;68279;48.964;14.502;2023-05-02T13:18:07;97362.00;;;18.16;51.27
78890;BME280;68279;48.964;14.502;2023-05-02T13:20:33;97354.00;;;19.43;50.53
78890;BME280;68279;48.964;14.502;2023-05-02T13:22:58;97363.34;;;19.33;51.21
78890;BME280;68279;48.964;14.502;2023-05-02T13:25:24;97363.19;;;19.09;49.27
78890;BME280;68279;48.964;14.502;2023-05-02T13:27:51;97363.50;;;18.60;49.20
78890;BME280;68279;48.964;14.502;2023-05-02T13:30:16;97362.44;;;16.21;52.72
78890;BME280;68279;48.964;14.502;2023-05-02T13:32:42;97369.03;;;16.15;57.22